sensor_id;sensor_type;location;lat;lon;timestamp;temperature;humidity
76426;DHT22;65258;42.680;23.266;2022-11-25T00:01:14;7.18;64.21
76426;DHT22;65258;42.680;23.266;2022-11-25T00:03:41;7.14;64.64
76426;DHT22;65258;42.680;23.266;2022-11-25T00:08:41;7.12;64.57
76426;DHT22;65258;42.680;23.266;2022-11-25T00:11:07;7.12;64.09
76426;DHT22;65258;42.680;23.266;2022-11-25T00:13:33;7.16;64.11
76426;DHT22;65258;42.680;23.266;2022-11-25T00:16:04;7.07;64.46
76426;DHT22;65258;42.680;23.266;2022-11-25T00:18:30;7.05;64.18
76426;DHT22;65258;42.680;23.266;2022-11-25T00:20:56;7.07;64.11
76426;DHT22;65258;42.680;23.266;2022-11-25T00:23:22;7.04;64.25
76426;DHT22;65258;42.680;23.266;2022-11-25T00:25:47;7.07;64.46
76426;DHT22;65258;42.680;23.266;2022-11-25T00:28:13;7.09;64.56
76426;DHT22;65258;42.680;23.266;2022-11-25T00:30:38;7.14;64.79
76426;DHT22;65258;42.680;23.266;2022-11-25T00:33:04;7.11;64.38
76426;DHT22;65258;42.680;23.266;2022-11-25T00:35:29;7.15;64.72
76426;DHT22;65258;42.680;23.266;2022-11-25T00:37:55;7.08;64.61
76426;DHT22;65258;42.680;23.266;2022-11-25T00:40:20;7.01;65.29
76426;DHT22;65258;42.680;23.266;2022-11-25T00:42:46;7.03;65.28
76426;DHT22;65258;42.680;23.266;2022-11-25T00:45:30;6.97;65.47
76426;DHT22;65258;42.680;23.266;2022-11-25T00:47:55;6.97;65.47
76426;DHT22;65258;42.680;23.266;2022-11-25T00:50:21;7.00;65.11
76426;DHT22;65258;42.680;23.266;2022-11-25T00:52:46;6.97;65.35
76426;DHT22;65258;42.680;23.266;2022-11-25T00:55:12;6.90;65.75
76426;DHT22;65258;42.680;23.266;2022-11-25T00:57:37;6.85;65.53
76426;DHT22;65258;42.680;23.266;2022-11-25T01:00:04;6.94;65.64
76426;DHT22;65258;42.680;23.266;2022-11-25T01:02:30;6.95;65.18
76426;DHT22;65258;42.680;23.266;2022-11-25T01:04:55;6.90;65.30
76426;DHT22;65258;42.680;23.266;2022-11-25T01:07:21;6.84;65.40
76426;DHT22;65258;42.680;23.266;2022-11-25T01:09:47;6.80;66.05
76426;DHT22;65258;42.680;23.266;2022-11-25T01:12:13;6.87;65.78
76426;DHT22;65258;42.680;23.266;2022-11-25T01:14:39;6.93;65.59
76426;DHT22;65258;42.680;23.266;2022-11-25T01:17:05;6.87;65.46
76426;DHT22;65258;42.680;23.266;2022-11-25T01:19:31;6.84;65.39
76426;DHT22;65258;42.680;23.266;2022-11-25T01:21:58;6.88;65.43
76426;DHT22;65258;42.680;23.266;2022-11-25T01:24:24;6.93;65.34
76426;DHT22;65258;42.680;23.266;2022-11-25T01:26:53;6.95;65.58
76426;DHT22;65258;42.680;23.266;2022-11-25T01:29:21;6.98;65.42
76426;DHT22;65258;42.680;23.266;2022-11-25T01:31:47;6.98;64.95
76426;DHT22;65258;42.680;23.266;2022-11-25T01:34:23;6.98;65.06
76426;DHT22;65258;42.680;23.266;2022-11-25T01:36:49;7.01;64.74
76426;DHT22;65258;42.680;23.266;2022-11-25T01:39:20;6.93;64.29
76426;DHT22;65258;42.680;23.266;2022-11-25T01:41:48;6.94;64.59
76426;DHT22;65258;42.680;23.266;2022-11-25T01:49:36;7.03;63.85
76426;DHT22;65258;42.680;23.266;2022-11-25T01:57:24;7.07;63.17
76426;DHT22;65258;42.680;23.266;2022-11-25T01:59:52;7.12;63.25
76426;DHT22;65258;42.680;23.266;2022-11-25T02:02:20;7.08;62.87
76426;DHT22;65258;42.680;23.266;2022-11-25T02:04:46;7.12;62.75
76426;DHT22;65258;42.680;23.266;2022-11-25T02:07:37;7.12;63.10
76426;DHT22;65258;42.680;23.266;2022-11-25T02:10:09;7.11;62.59
76426;DHT22;65258;42.680;23.266;2022-11-25T02:12:37;7.11;62.87
76426;DHT22;65258;42.680;23.266;2022-11-25T02:15:06;7.18;62.48
76426;DHT22;65258;42.680;23.266;2022-11-25T02:17:32;7.21;62.35
76426;DHT22;65258;42.680;23.266;2022-11-25T02:20:05;7.15;62.16
76426;DHT22;65258;42.680;23.266;2022-11-25T02:25:34;7.12;62.19
76426;DHT22;65258;42.680;23.266;2022-11-25T02:30:40;7.07;62.47
76426;DHT22;65258;42.680;23.266;2022-11-25T02:33:06;7.07;62.13
76426;DHT22;65258;42.680;23.266;2022-11-25T02:35:36;7.04;61.64
76426;DHT22;65258;42.680;23.266;2022-11-25T02:38:21;7.05;62.17
76426;DHT22;65258;42.680;23.266;2022-11-25T02:40:49;7.03;61.76
76426;DHT22;65258;42.680;23.266;2022-11-25T02:43:17;7.00;61.84
76426;DHT22;65258;42.680;23.266;2022-11-25T02:48:21;7.03;61.26
76426;DHT22;65258;42.680;23.266;2022-11-25T02:50:47;6.97;61.80
76426;DHT22;65258;42.680;23.266;2022-11-25T02:53:13;6.94;62.13
76426;DHT22;65258;42.680;23.266;2022-11-25T02:55:39;6.94;62.13
76426;DHT22;65258;42.680;23.266;2022-11-25T02:58:05;6.83;62.45
76426;DHT22;65258;42.680;23.266;2022-11-25T03:00:31;6.85;63.09
76426;DHT22;65258;42.680;23.266;2022-11-25T03:02:57;6.85;62.60
76426;DHT22;65258;42.680;23.266;2022-11-25T03:05:22;6.87;63.07
76426;DHT22;65258;42.680;23.266;2022-11-25T03:07:48;6.95;62.70
76426;DHT22;65258;42.680;23.266;2022-11-25T03:10:16;7.00;62.83
76426;DHT22;65258;42.680;23.266;2022-11-25T03:12:42;6.98;62.95
76426;DHT22;65258;42.680;23.266;2022-11-25T03:15:08;6.91;63.18
76426;DHT22;65258;42.680;23.266;2022-11-25T03:17:34;6.97;63.51
76426;DHT22;65258;42.680;23.266;2022-11-25T03:19:59;6.97;63.68
76426;DHT22;65258;42.680;23.266;2022-11-25T03:22:25;6.93;64.02
76426;DHT22;65258;42.680;23.266;2022-11-25T03:24:50;6.83;64.56
76426;DHT22;65258;42.680;23.266;2022-11-25T03:27:16;6.80;65.02
76426;DHT22;65258;42.680;23.266;2022-11-25T03:29:42;6.80;65.20
76426;DHT22;65258;42.680;23.266;2022-11-25T03:32:08;6.84;65.34
76426;DHT22;65258;42.680;23.266;2022-11-25T03:34:34;6.71;65.93
76426;DHT22;65258;42.680;23.266;2022-11-25T03:36:59;6.67;66.34
76426;DHT22;65258;42.680;23.266;2022-11-25T03:39:27;6.58;66.68
76426;DHT22;65258;42.680;23.266;2022-11-25T03:41:53;6.64;66.60
76426;DHT22;65258;42.680;23.266;2022-11-25T03:44:20;6.60;66.98
76426;DHT22;65258;42.680;23.266;2022-11-25T03:46:45;6.44;67.45
76426;DHT22;65258;42.680;23.266;2022-11-25T03:49:11;6.37;67.78
76426;DHT22;65258;42.680;23.266;2022-11-25T03:51:37;6.32;68.14
76426;DHT22;65258;42.680;23.266;2022-11-25T03:54:03;6.18;68.48
76426;DHT22;65258;42.680;23.266;2022-11-25T03:56:38;6.13;68.93
76426;DHT22;65258;42.680;23.266;2022-11-25T03:59:04;6.12;69.03
76426;DHT22;65258;42.680;23.266;2022-11-25T04:01:30;5.99;69.36
76426;DHT22;65258;42.680;23.266;2022-11-25T04:03:56;6.01;69.33
76426;DHT22;65258;42.680;23.266;2022-11-25T04:06:21;5.94;69.46
76426;DHT22;65258;42.680;23.266;2022-11-25T04:08:50;5.88;69.46
76426;DHT22;65258;42.680;23.266;2022-11-25T04:11:16;5.84;69.70
76426;DHT22;65258;42.680;23.266;2022-11-25T04:13:45;5.82;69.72
76426;DHT22;65258;42.680;23.266;2022-11-25T04:16:21;5.78;69.62
76426;DHT22;65258;42.680;23.266;2022-11-25T04:18:48;5.75;69.77
76426;DHT22;65258;42.680;23.266;2022-11-25T04:21:14;5.72;70.05
76426;DHT22;65258;42.680;23.266;2022-11-25T04:23:39;5.68;70.22
76426;DHT22;65258;42.680;23.266;2022-11-25T04:26:09;5.67;70.22
76426;DHT22;65258;42.680;23.266;2022-11-25T04:28:38;5.61;70.19
76426;DHT22;65258;42.680;23.266;2022-11-25T04:31:05;5.64;70.20
76426;DHT22;65258;42.680;23.266;2022-11-25T04:33:32;5.61;70.04
76426;DHT22;65258;42.680;23.266;2022-11-25T04:35:58;5.59;70.39
76426;DHT22;65258;42.680;23.266;2022-11-25T04:38:26;5.55;70.62
76426;DHT22;65258;42.680;23.266;2022-11-25T04:40:52;5.55;70.47
76426;DHT22;65258;42.680;23.266;2022-11-25T04:43:20;5.51;70.64
76426;DHT22;65258;42.680;23.266;2022-11-25T04:45:58;5.51;70.57
76426;DHT22;65258;42.680;23.266;2022-11-25T04:48:24;5.44;70.91
76426;DHT22;65258;42.680;23.266;2022-11-25T04:50:50;5.48;70.97
76426;DHT22;65258;42.680;23.266;2022-11-25T04:53:15;5.44;70.93
76426;DHT22;65258;42.680;23.266;2022-11-25T04:55:41;5.44;70.73
76426;DHT22;65258;42.680;23.266;2022-11-25T04:58:13;5.47;70.66
76426;DHT22;65258;42.680;23.266;2022-11-25T05:00:40;5.47;70.55
76426;DHT22;65258;42.680;23.266;2022-11-25T05:03:07;5.43;70.79
76426;DHT22;65258;42.680;23.266;2022-11-25T05:05:37;5.44;70.46
76426;DHT22;65258;42.680;23.266;2022-11-25T05:08:03;5.44;70.42
76426;DHT22;65258;42.680;23.266;2022-11-25T05:10:28;5.48;70.30
76426;DHT22;65258;42.680;23.266;2022-11-25T05:12:55;5.38;70.44
76426;DHT22;65258;42.680;23.266;2022-11-25T05:15:21;5.36;70.71
76426;DHT22;65258;42.680;23.266;2022-11-25T05:17:46;5.41;70.23
76426;DHT22;65258;42.680;23.266;2022-11-25T05:20:14;5.43;70.09
76426;DHT22;65258;42.680;23.266;2022-11-25T05:22:39;5.46;69.74
76426;DHT22;65258;42.680;23.266;2022-11-25T05:25:07;5.47;69.73
76426;DHT22;65258;42.680;23.266;2022-11-25T05:27:39;5.55;69.13
76426;DHT22;65258;42.680;23.266;2022-11-25T05:30:08;5.61;68.79
76426;DHT22;65258;42.680;23.266;2022-11-25T05:32:33;5.72;68.54
76426;DHT22;65258;42.680;23.266;2022-11-25T05:35:03;5.78;67.97
76426;DHT22;65258;42.680;23.266;2022-11-25T05:37:30;5.88;67.85
76426;DHT22;65258;42.680;23.266;2022-11-25T05:40:03;6.01;67.45
76426;DHT22;65258;42.680;23.266;2022-11-25T05:42:59;6.12;66.86
76426;DHT22;65258;42.680;23.266;2022-11-25T05:45:27;6.12;66.63
76426;DHT22;65258;42.680;23.266;2022-11-25T05:47:54;6.15;66.99
76426;DHT22;65258;42.680;23.266;2022-11-25T05:50:22;6.26;66.46
76426;DHT22;65258;42.680;23.266;2022-11-25T05:53:01;6.36;66.05
76426;DHT22;65258;42.680;23.266;2022-11-25T05:55:27;6.49;65.37
76426;DHT22;65258;42.680;23.266;2022-11-25T05:57:53;6.57;64.95
76426;DHT22;65258;42.680;23.266;2022-11-25T06:00:19;6.66;64.39
76426;DHT22;65258;42.680;23.266;2022-11-25T06:02:50;6.74;63.36
76426;DHT22;65258;42.680;23.266;2022-11-25T06:05:16;6.80;63.67
76426;DHT22;65258;42.680;23.266;2022-11-25T06:07:42;6.87;63.16
76426;DHT22;65258;42.680;23.266;2022-11-25T06:10:08;6.97;63.10
76426;DHT22;65258;42.680;23.266;2022-11-25T06:12:36;7.05;62.41
76426;DHT22;65258;42.680;23.266;2022-11-25T06:15:02;7.09;62.49
76426;DHT22;65258;42.680;23.266;2022-11-25T06:17:28;7.05;62.31
76426;DHT22;65258;42.680;23.266;2022-11-25T06:20:06;7.04;62.27
76426;DHT22;65258;42.680;23.266;2022-11-25T06:22:32;7.03;62.65
76426;DHT22;65258;42.680;23.266;2022-11-25T06:24:58;6.95;62.15
76426;DHT22;65258;42.680;23.266;2022-11-25T06:27:24;7.04;62.04
76426;DHT22;65258;42.680;23.266;2022-11-25T06:29:50;7.09;61.92
76426;DHT22;65258;42.680;23.266;2022-11-25T06:32:15;7.14;61.59
76426;DHT22;65258;42.680;23.266;2022-11-25T06:34:51;7.16;61.28
76426;DHT22;65258;42.680;23.266;2022-11-25T06:37:46;7.22;61.30
76426;DHT22;65258;42.680;23.266;2022-11-25T06:40:12;7.22;61.30
76426;DHT22;65258;42.680;23.266;2022-11-25T06:42:38;7.34;61.51
76426;DHT22;65258;42.680;23.266;2022-11-25T06:45:05;7.38;61.01
76426;DHT22;65258;42.680;23.266;2022-11-25T06:47:30;7.39;61.28
76426;DHT22;65258;42.680;23.266;2022-11-25T06:49:56;7.49;61.15
76426;DHT22;65258;42.680;23.266;2022-11-25T06:52:21;7.56;60.65
76426;DHT22;65258;42.680;23.266;2022-11-25T06:54:47;7.70;60.38
76426;DHT22;65258;42.680;23.266;2022-11-25T06:57:16;7.69;60.36
76426;DHT22;65258;42.680;23.266;2022-11-25T06:59:42;7.66;60.91
76426;DHT22;65258;42.680;23.266;2022-11-25T07:02:10;7.73;60.16
76426;DHT22;65258;42.680;23.266;2022-11-25T07:04:36;7.79;60.43
76426;DHT22;65258;42.680;23.266;2022-11-25T07:07:01;7.89;59.62
76426;DHT22;65258;42.680;23.266;2022-11-25T07:09:30;7.93;59.60
76426;DHT22;65258;42.680;23.266;2022-11-25T07:11:55;7.91;59.91
76426;DHT22;65258;42.680;23.266;2022-11-25T07:14:22;7.96;59.46
76426;DHT22;65258;42.680;23.266;2022-11-25T07:16:47;7.91;59.64
76426;DHT22;65258;42.680;23.266;2022-11-25T07:19:16;7.94;59.48
76426;DHT22;65258;42.680;23.266;2022-11-25T07:21:42;7.93;59.41
76426;DHT22;65258;42.680;23.266;2022-11-25T07:24:11;7.93;59.22
76426;DHT22;65258;42.680;23.266;2022-11-25T07:26:38;7.93;59.24
76426;DHT22;65258;42.680;23.266;2022-11-25T07:29:07;7.91;59.40
76426;DHT22;65258;42.680;23.266;2022-11-25T07:31:35;7.90;59.38
76426;DHT22;65258;42.680;23.266;2022-11-25T07:34:06;7.93;59.72
76426;DHT22;65258;42.680;23.266;2022-11-25T07:36:34;8.04;59.15
76426;DHT22;65258;42.680;23.266;2022-11-25T07:39:03;8.11;58.70
76426;DHT22;65258;42.680;23.266;2022-11-25T07:41:29;8.16;57.94
76426;DHT22;65258;42.680;23.266;2022-11-25T07:43:59;8.36;58.22
76426;DHT22;65258;42.680;23.266;2022-11-25T07:46:29;8.95;56.77
76426;DHT22;65258;42.680;23.266;2022-11-25T07:48:58;9.53;54.18
76426;DHT22;65258;42.680;23.266;2022-11-25T07:51:27;9.94;53.06
76426;DHT22;65258;42.680;23.266;2022-11-25T07:53:54;10.39;51.53
76426;DHT22;65258;42.680;23.266;2022-11-25T07:56:21;10.73;50.30
76426;DHT22;65258;42.680;23.266;2022-11-25T07:58:47;10.62;50.68
76426;DHT22;65258;42.680;23.266;2022-11-25T08:01:13;10.97;50.05
76426;DHT22;65258;42.680;23.266;2022-11-25T08:03:41;11.34;49.20
76426;DHT22;65258;42.680;23.266;2022-11-25T08:06:08;11.68;48.37
76426;DHT22;65258;42.680;23.266;2022-11-25T08:08:35;11.34;48.46
76426;DHT22;65258;42.680;23.266;2022-11-25T08:11:05;11.21;49.20
76426;DHT22;65258;42.680;23.266;2022-11-25T08:13:31;11.44;48.39
76426;DHT22;65258;42.680;23.266;2022-11-25T08:15:58;11.55;47.97
76426;DHT22;65258;42.680;23.266;2022-11-25T08:18:24;11.83;48.32
76426;DHT22;65258;42.680;23.266;2022-11-25T08:20:50;11.89;47.52
76426;DHT22;65258;42.680;23.266;2022-11-25T08:23:15;12.05;46.83
76426;DHT22;65258;42.680;23.266;2022-11-25T08:25:41;12.02;46.83
76426;DHT22;65258;42.680;23.266;2022-11-25T08:28:07;12.03;47.71
76426;DHT22;65258;42.680;23.266;2022-11-25T08:30:33;12.09;47.25
76426;DHT22;65258;42.680;23.266;2022-11-25T08:32:59;12.21;47.29
76426;DHT22;65258;42.680;23.266;2022-11-25T08:35:25;12.33;47.35
76426;DHT22;65258;42.680;23.266;2022-11-25T08:37:51;12.54;45.67
76426;DHT22;65258;42.680;23.266;2022-11-25T08:40:16;12.57;46.13
76426;DHT22;65258;42.680;23.266;2022-11-25T08:42:42;12.54;45.53
76426;DHT22;65258;42.680;23.266;2022-11-25T08:45:08;12.56;45.74
76426;DHT22;65258;42.680;23.266;2022-11-25T08:47:34;12.61;45.77
76426;DHT22;65258;42.680;23.266;2022-11-25T08:49:59;12.68;45.82
76426;DHT22;65258;42.680;23.266;2022-11-25T08:52:25;12.76;44.88
76426;DHT22;65258;42.680;23.266;2022-11-25T08:54:53;12.79;45.06
76426;DHT22;65258;42.680;23.266;2022-11-25T08:57:18;12.73;44.52
76426;DHT22;65258;42.680;23.266;2022-11-25T08:59:44;12.53;45.91
76426;DHT22;65258;42.680;23.266;2022-11-25T09:02:11;12.15;46.14
76426;DHT22;65258;42.680;23.266;2022-11-25T09:04:39;11.82;47.12
76426;DHT22;65258;42.680;23.266;2022-11-25T09:07:04;11.72;48.09
76426;DHT22;65258;42.680;23.266;2022-11-25T09:09:30;11.77;48.56
76426;DHT22;65258;42.680;23.266;2022-11-25T09:11:56;11.75;47.83
76426;DHT22;65258;42.680;23.266;2022-11-25T09:14:21;11.37;48.96
76426;DHT22;65258;42.680;23.266;2022-11-25T09:16:48;11.20;49.50
76426;DHT22;65258;42.680;23.266;2022-11-25T09:19:14;11.01;48.95
76426;DHT22;65258;42.680;23.266;2022-11-25T09:21:42;11.03;49.54
76426;DHT22;65258;42.680;23.266;2022-11-25T09:24:08;11.16;50.04
76426;DHT22;65258;42.680;23.266;2022-11-25T09:26:34;11.27;49.64
76426;DHT22;65258;42.680;23.266;2022-11-25T09:29:01;11.37;48.85
76426;DHT22;65258;42.680;23.266;2022-11-25T09:31:27;11.41;49.95
76426;DHT22;65258;42.680;23.266;2022-11-25T09:33:53;11.47;49.76
76426;DHT22;65258;42.680;23.266;2022-11-25T09:36:20;11.54;48.65
76426;DHT22;65258;42.680;23.266;2022-11-25T09:38:47;11.24;48.27
76426;DHT22;65258;42.680;23.266;2022-11-25T09:47:21;11.16;49.82
76426;DHT22;65258;42.680;23.266;2022-11-25T09:50:02;11.45;49.20
76426;DHT22;65258;42.680;23.266;2022-11-25T09:55:23;11.48;48.13
76426;DHT22;65258;42.680;23.266;2022-11-25T09:58:22;11.30;48.45
76426;DHT22;65258;42.680;23.266;2022-11-25T10:00:51;11.00;48.92
76426;DHT22;65258;42.680;23.266;2022-11-25T10:06:23;10.65;50.53
76426;DHT22;65258;42.680;23.266;2022-11-25T10:08:52;10.73;51.01
76426;DHT22;65258;42.680;23.266;2022-11-25T10:14:06;10.52;50.24
76426;DHT22;65258;42.680;23.266;2022-11-25T10:16:47;10.60;50.58
76426;DHT22;65258;42.680;23.266;2022-11-25T10:24:41;11.17;49.63
76426;DHT22;65258;42.680;23.266;2022-11-25T10:27:16;11.23;49.61
76426;DHT22;65258;42.680;23.266;2022-11-25T10:29:46;11.10;49.24
76426;DHT22;65258;42.680;23.266;2022-11-25T10:32:22;11.06;48.69
76426;DHT22;65258;42.680;23.266;2022-11-25T10:35:00;10.93;49.22
76426;DHT22;65258;42.680;23.266;2022-11-25T10:37:33;10.95;50.21
76426;DHT22;65258;42.680;23.266;2022-11-25T10:40:00;10.95;49.89
76426;DHT22;65258;42.680;23.266;2022-11-25T10:42:27;10.93;49.65
76426;DHT22;65258;42.680;23.266;2022-11-25T10:44:53;10.86;49.11
76426;DHT22;65258;42.680;23.266;2022-11-25T10:52:48;10.69;50.16
76426;DHT22;65258;42.680;23.266;2022-11-25T10:55:20;10.56;50.19
76426;DHT22;65258;42.680;23.266;2022-11-25T10:57:50;10.45;50.50
76426;DHT22;65258;42.680;23.266;2022-11-25T11:00:33;10.24;50.69
76426;DHT22;65258;42.680;23.266;2022-11-25T11:03:22;10.24;50.84
76426;DHT22;65258;42.680;23.266;2022-11-25T11:05:50;10.18;51.47
76426;DHT22;65258;42.680;23.266;2022-11-25T11:11:23;10.01;52.21
76426;DHT22;65258;42.680;23.266;2022-11-25T11:13:57;9.97;52.39
76426;DHT22;65258;42.680;23.266;2022-11-25T11:16:29;9.95;52.44
76426;DHT22;65258;42.680;23.266;2022-11-25T11:18:56;9.90;53.31
76426;DHT22;65258;42.680;23.266;2022-11-25T11:21:31;9.88;53.24
76426;DHT22;65258;42.680;23.266;2022-11-25T11:23:58;9.77;53.64
76426;DHT22;65258;42.680;23.266;2022-11-25T11:26:34;9.64;54.44
76426;DHT22;65258;42.680;23.266;2022-11-25T11:29:16;9.58;54.04
76426;DHT22;65258;42.680;23.266;2022-11-25T11:31:57;9.60;54.25
76426;DHT22;65258;42.680;23.266;2022-11-25T11:35:02;9.55;54.51
76426;DHT22;65258;42.680;23.266;2022-11-25T11:37:44;9.50;55.07
76426;DHT22;65258;42.680;23.266;2022-11-25T11:43:38;9.42;55.05
76426;DHT22;65258;42.680;23.266;2022-11-25T11:46:29;9.26;55.81
76426;DHT22;65258;42.680;23.266;2022-11-25T11:51:39;9.01;56.62
76426;DHT22;65258;42.680;23.266;2022-11-25T12:00:00;9.12;56.25
76426;DHT22;65258;42.680;23.266;2022-11-25T12:05:32;9.11;56.60
76426;DHT22;65258;42.680;23.266;2022-11-25T12:08:22;9.11;57.16
76426;DHT22;65258;42.680;23.266;2022-11-25T12:11:02;9.12;56.47
76426;DHT22;65258;42.680;23.266;2022-11-25T12:16:27;9.19;56.42
76426;DHT22;65258;42.680;23.266;2022-11-25T12:19:12;9.15;56.26
76426;DHT22;65258;42.680;23.266;2022-11-25T12:22:01;9.09;56.39
76426;DHT22;65258;42.680;23.266;2022-11-25T12:27:21;9.15;56.55
76426;DHT22;65258;42.680;23.266;2022-11-25T12:30:17;8.99;57.05
76426;DHT22;65258;42.680;23.266;2022-11-25T12:35:39;8.78;57.17
76426;DHT22;65258;42.680;23.266;2022-11-25T12:38:24;8.76;57.14
76426;DHT22;65258;42.680;23.266;2022-11-25T12:41:18;8.68;57.70
76426;DHT22;65258;42.680;23.266;2022-11-25T12:48:57;8.55;58.03
76426;DHT22;65258;42.680;23.266;2022-11-25T12:58:03;8.31;58.90
76426;DHT22;65258;42.680;23.266;2022-11-25T13:13:50;7.86;58.97
76426;DHT22;65258;42.680;23.266;2022-11-25T13:16:18;7.87;59.41
76426;DHT22;65258;42.680;23.266;2022-11-25T13:18:44;7.76;59.34
76426;DHT22;65258;42.680;23.266;2022-11-25T13:21:13;7.75;60.06
76426;DHT22;65258;42.680;23.266;2022-11-25T13:23:59;7.62;60.42
76426;DHT22;65258;42.680;23.266;2022-11-25T13:28:54;7.65;60.25
76426;DHT22;65258;42.680;23.266;2022-11-25T13:36:24;7.56;59.75
76426;DHT22;65258;42.680;23.266;2022-11-25T13:44:09;7.61;59.62
76426;DHT22;65258;42.680;23.266;2022-11-25T13:46:46;7.55;59.45
76426;DHT22;65258;42.680;23.266;2022-11-25T13:49:30;7.54;59.75
76426;DHT22;65258;42.680;23.266;2022-11-25T13:52:01;7.45;59.84
76426;DHT22;65258;42.680;23.266;2022-11-25T13:54:37;7.49;59.91
76426;DHT22;65258;42.680;23.266;2022-11-25T14:00:24;7.48;60.04
76426;DHT22;65258;42.680;23.266;2022-11-25T14:02:53;7.42;60.35
76426;DHT22;65258;42.680;23.266;2022-11-25T14:05:44;7.38;60.50
76426;DHT22;65258;42.680;23.266;2022-11-25T14:25:47;7.05;62.71
76426;DHT22;65258;42.680;23.266;2022-11-25T14:28:40;7.04;62.73
76426;DHT22;65258;42.680;23.266;2022-11-25T14:31:13;6.95;62.97
76426;DHT22;65258;42.680;23.266;2022-11-25T14:33:57;6.95;63.30
76426;DHT22;65258;42.680;23.266;2022-11-25T14:36:28;6.93;63.25
76426;DHT22;65258;42.680;23.266;2022-11-25T14:39:01;6.85;63.50
76426;DHT22;65258;42.680;23.266;2022-11-25T14:44:20;6.79;63.96
76426;DHT22;65258;42.680;23.266;2022-11-25T14:46:55;6.76;63.87
76426;DHT22;65258;42.680;23.266;2022-11-25T14:49:21;6.69;63.67
76426;DHT22;65258;42.680;23.266;2022-11-25T14:51:49;6.70;63.45
76426;DHT22;65258;42.680;23.266;2022-11-25T14:54:16;6.70;63.65
76426;DHT22;65258;42.680;23.266;2022-11-25T14:56:42;6.64;63.38
76426;DHT22;65258;42.680;23.266;2022-11-25T14:59:09;6.62;63.52
76426;DHT22;65258;42.680;23.266;2022-11-25T15:01:36;6.58;63.53
76426;DHT22;65258;42.680;23.266;2022-11-25T15:06:44;6.49;63.58
76426;DHT22;65258;42.680;23.266;2022-11-25T15:09:25;6.47;63.82
76426;DHT22;65258;42.680;23.266;2022-11-25T15:12:00;6.49;63.29
76426;DHT22;65258;42.680;23.266;2022-11-25T15:14:35;6.40;63.74
76426;DHT22;65258;42.680;23.266;2022-11-25T15:17:16;6.43;63.56
76426;DHT22;65258;42.680;23.266;2022-11-25T15:19:45;6.40;64.22
76426;DHT22;65258;42.680;23.266;2022-11-25T15:22:12;6.36;63.82
76426;DHT22;65258;42.680;23.266;2022-11-25T15:24:42;6.39;64.15
76426;DHT22;65258;42.680;23.266;2022-11-25T15:27:19;6.30;64.15
76426;DHT22;65258;42.680;23.266;2022-11-25T15:29:48;6.30;64.18
76426;DHT22;65258;42.680;23.266;2022-11-25T15:32:28;6.28;64.31
76426;DHT22;65258;42.680;23.266;2022-11-25T15:34:57;6.28;64.25
76426;DHT22;65258;42.680;23.266;2022-11-25T15:37:24;6.30;64.13
76426;DHT22;65258;42.680;23.266;2022-11-25T15:40:28;6.26;64.32
76426;DHT22;65258;42.680;23.266;2022-11-25T15:42:58;6.19;64.37
76426;DHT22;65258;42.680;23.266;2022-11-25T15:45:26;6.20;64.47
76426;DHT22;65258;42.680;23.266;2022-11-25T15:47:55;6.20;64.34
76426;DHT22;65258;42.680;23.266;2022-11-25T15:50:27;6.13;64.72
76426;DHT22;65258;42.680;23.266;2022-11-25T15:52:56;6.19;64.46
76426;DHT22;65258;42.680;23.266;2022-11-25T15:55:34;6.12;64.67
76426;DHT22;65258;42.680;23.266;2022-11-25T15:58:30;6.20;64.42
76426;DHT22;65258;42.680;23.266;2022-11-25T16:01:18;6.19;64.71
76426;DHT22;65258;42.680;23.266;2022-11-25T16:03:45;6.18;64.58
76426;DHT22;65258;42.680;23.266;2022-11-25T16:06:32;6.22;64.28
76426;DHT22;65258;42.680;23.266;2022-11-25T16:09:01;6.15;64.39
76426;DHT22;65258;42.680;23.266;2022-11-25T16:11:29;6.10;64.56
76426;DHT22;65258;42.680;23.266;2022-11-25T16:14:26;6.12;64.21
76426;DHT22;65258;42.680;23.266;2022-11-25T16:17:09;5.99;64.20
76426;DHT22;65258;42.680;23.266;2022-11-25T16:19:45;6.01;64.28
76426;DHT22;65258;42.680;23.266;2022-11-25T16:22:16;5.99;64.05
76426;DHT22;65258;42.680;23.266;2022-11-25T16:24:51;6.01;64.12
76426;DHT22;65258;42.680;23.266;2022-11-25T16:27:22;5.87;64.35
76426;DHT22;65258;42.680;23.266;2022-11-25T16:29:54;5.88;64.17
76426;DHT22;65258;42.680;23.266;2022-11-25T16:32:26;5.95;64.20
76426;DHT22;65258;42.680;23.266;2022-11-25T16:34:54;5.98;63.74
76426;DHT22;65258;42.680;23.266;2022-11-25T16:37:22;5.98;63.98
76426;DHT22;65258;42.680;23.266;2022-11-25T16:39:48;5.99;63.70
76426;DHT22;65258;42.680;23.266;2022-11-25T16:42:19;5.94;63.92
76426;DHT22;65258;42.680;23.266;2022-11-25T16:44:48;5.92;64.17
76426;DHT22;65258;42.680;23.266;2022-11-25T16:47:15;5.95;63.82
76426;DHT22;65258;42.680;23.266;2022-11-25T16:49:41;5.95;64.34
76426;DHT22;65258;42.680;23.266;2022-11-25T16:52:07;5.92;64.30
76426;DHT22;65258;42.680;23.266;2022-11-25T16:54:35;5.91;64.21
76426;DHT22;65258;42.680;23.266;2022-11-25T16:57:02;5.95;64.29
76426;DHT22;65258;42.680;23.266;2022-11-25T16:59:32;5.91;64.23
76426;DHT22;65258;42.680;23.266;2022-11-25T17:01:59;5.89;64.05
76426;DHT22;65258;42.680;23.266;2022-11-25T17:04:26;5.88;64.16
76426;DHT22;65258;42.680;23.266;2022-11-25T17:06:54;5.75;64.50
76426;DHT22;65258;42.680;23.266;2022-11-25T17:09:19;5.82;64.24
76426;DHT22;65258;42.680;23.266;2022-11-25T17:11:48;5.78;64.51
76426;DHT22;65258;42.680;23.266;2022-11-25T17:14:30;5.69;64.46
76426;DHT22;65258;42.680;23.266;2022-11-25T17:16:58;5.72;64.66
76426;DHT22;65258;42.680;23.266;2022-11-25T17:19:24;5.75;64.61
76426;DHT22;65258;42.680;23.266;2022-11-25T17:21:49;5.74;64.63
76426;DHT22;65258;42.680;23.266;2022-11-25T17:24:18;5.74;64.74
76426;DHT22;65258;42.680;23.266;2022-11-25T17:27:04;5.69;65.18
76426;DHT22;65258;42.680;23.266;2022-11-25T17:29:36;5.71;65.10
76426;DHT22;65258;42.680;23.266;2022-11-25T17:32:08;5.69;65.20
76426;DHT22;65258;42.680;23.266;2022-11-25T17:34:35;5.68;65.30
76426;DHT22;65258;42.680;23.266;2022-11-25T17:37:03;5.78;65.11
76426;DHT22;65258;42.680;23.266;2022-11-25T17:39:29;5.78;65.21
76426;DHT22;65258;42.680;23.266;2022-11-25T17:41:54;5.74;65.54
76426;DHT22;65258;42.680;23.266;2022-11-25T17:44:27;5.75;65.43
76426;DHT22;65258;42.680;23.266;2022-11-25T17:46:55;5.79;65.37
76426;DHT22;65258;42.680;23.266;2022-11-25T17:49:21;5.74;65.55
76426;DHT22;65258;42.680;23.266;2022-11-25T17:51:47;5.68;66.06
76426;DHT22;65258;42.680;23.266;2022-11-25T17:54:13;5.69;65.99
76426;DHT22;65258;42.680;23.266;2022-11-25T17:56:41;5.64;66.39
76426;DHT22;65258;42.680;23.266;2022-11-25T17:59:13;5.58;66.54
76426;DHT22;65258;42.680;23.266;2022-11-25T18:01:39;5.61;66.63